sensor_id;sensor_type;location;lat;lon;timestamp;P1;durP1;ratioP1;P2;durP2;ratioP2
83263;SDS011;73156;50.988;11.034;2024-02-23T00:01:27;11.20;;;5.10;;
83263;SDS011;73156;50.988;11.034;2024-02-23T00:03:52;10.65;;;5.18;;
83263;SDS011;73156;50.988;11.034;2024-02-23T00:06:18;11.90;;;5.33;;
83263;SDS011;73156;50.988;11.034;2024-02-23T00:08:43;11.52;;;5.43;;
83263;SDS011;73156;50.988;11.034;2024-02-23T00:11:08;12.48;;;5.82;;
83263;SDS011;73156;50.988;11.034;2024-02-23T00:13:34;11.80;;;5.50;;
83263;SDS011;73156;50.988;11.034;2024-02-23T00:15:59;13.00;;;5.47;;
83263;SDS011;73156;50.988;11.034;2024-02-23T00:18:24;13.80;;;6.40;;
83263;SDS011;73156;50.988;11.034;2024-02-23T00:20:49;14.13;;;6.33;;
83263;SDS011;73156;50.988;11.034;2024-02-23T00:23:15;15.40;;;6.57;;
83263;SDS011;73156;50.988;11.034;2024-02-23T00:25:40;15.00;;;6.47;;
83263;SDS011;73156;50.988;11.034;2024-02-23T00:28:05;15.52;;;7.00;;
83263;SDS011;73156;50.988;11.034;2024-02-23T00:30:31;14.68;;;6.78;;
83263;SDS011;73156;50.988;11.034;2024-02-23T00:32:56;18.40;;;7.27;;
83263;SDS011;73156;50.988;11.034;2024-02-23T00:35:21;15.13;;;6.70;;
83263;SDS011;73156;50.988;11.034;2024-02-23T00:37:47;14.33;;;5.93;;
83263;SDS011;73156;50.988;11.034;2024-02-23T00:40:12;12.73;;;6.17;;
83263;SDS011;73156;50.988;11.034;2024-02-23T00:42:38;12.77;;;5.53;;
83263;SDS011;73156;50.988;11.034;2024-02-23T00:45:04;15.50;;;6.80;;
83263;SDS011;73156;50.988;11.034;2024-02-23T00:47:30;13.63;;;5.75;;
83263;SDS011;73156;50.988;11.034;2024-02-23T00:49:55;12.07;;;6.07;;
83263;SDS011;73156;50.988;11.034;2024-02-23T00:52:21;14.45;;;6.43;;
83263;SDS011;73156;50.988;11.034;2024-02-23T00:54:46;11.88;;;5.82;;
83263;SDS011;73156;50.988;11.034;2024-02-23T00:57:11;18.90;;;7.20;;
83263;SDS011;73156;50.988;11.034;2024-02-23T00:59:37;15.97;;;6.90;;
83263;SDS011;73156;50.988;11.034;2024-02-23T01:02:02;12.97;;;6.37;;
83263;SDS011;73156;50.988;11.034;2024-02-23T01:04:27;14.03;;;6.37;;
83263;SDS011;73156;50.988;11.034;2024-02-23T01:06:52;12.27;;;5.77;;
83263;SDS011;73156;50.988;11.034;2024-02-23T01:09:18;14.83;;;6.80;;
83263;SDS011;73156;50.988;11.034;2024-02-23T01:11:45;13.63;;;5.75;;
83263;SDS011;73156;50.988;11.034;2024-02-23T01:14:11;17.20;;;7.30;;
83263;SDS011;73156;50.988;11.034;2024-02-23T01:16:36;12.30;;;5.90;;
83263;SDS011;73156;50.988;11.034;2024-02-23T01:19:02;14.13;;;6.57;;
83263;SDS011;73156;50.988;11.034;2024-02-23T01:21:28;17.55;;;6.78;;
83263;SDS011;73156;50.988;11.034;2024-02-23T01:23:53;15.40;;;6.65;;
83263;SDS011;73156;50.988;11.034;2024-02-23T01:26:18;15.27;;;7.20;;
83263;SDS011;73156;50.988;11.034;2024-02-23T01:28:44;14.07;;;6.60;;
83263;SDS011;73156;50.988;11.034;2024-02-23T01:31:09;17.20;;;7.43;;
83263;SDS011;73156;50.988;11.034;2024-02-23T01:33:36;14.30;;;6.72;;
83263;SDS011;73156;50.988;11.034;2024-02-23T01:36:03;14.05;;;7.05;;
83263;SDS011;73156;50.988;11.034;2024-02-23T01:38:29;14.95;;;6.88;;
83263;SDS011;73156;50.988;11.034;2024-02-23T01:43:22;15.83;;;6.43;;
83263;SDS011;73156;50.988;11.034;2024-02-23T01:45:47;13.97;;;6.33;;
83263;SDS011;73156;50.988;11.034;2024-02-23T01:48:13;15.85;;;6.43;;
83263;SDS011;73156;50.988;11.034;2024-02-23T01:50:38;13.75;;;5.57;;
83263;SDS011;73156;50.988;11.034;2024-02-23T01:53:04;15.20;;;5.82;;
83263;SDS011;73156;50.988;11.034;2024-02-23T01:55:30;11.90;;;5.68;;
83263;SDS011;73156;50.988;11.034;2024-02-23T01:57:57;12.70;;;5.40;;
83263;SDS011;73156;50.988;11.034;2024-02-23T02:00:23;10.23;;;5.47;;
83263;SDS011;73156;50.988;11.034;2024-02-23T02:02:48;15.47;;;5.10;;
83263;SDS011;73156;50.988;11.034;2024-02-23T02:05:14;12.40;;;4.43;;
83263;SDS011;73156;50.988;11.034;2024-02-23T02:07:42;11.13;;;5.07;;
83263;SDS011;73156;50.988;11.034;2024-02-23T02:10:08;10.52;;;4.97;;
83263;SDS011;73156;50.988;11.034;2024-02-23T02:12:34;14.63;;;5.22;;
83263;SDS011;73156;50.988;11.034;2024-02-23T02:15:00;11.95;;;5.35;;
83263;SDS011;73156;50.988;11.034;2024-02-23T02:17:27;13.30;;;4.57;;
83263;SDS011;73156;50.988;11.034;2024-02-23T02:19:53;10.98;;;4.72;;
83263;SDS011;73156;50.988;11.034;2024-02-23T02:22:18;10.55;;;4.43;;
83263;SDS011;73156;50.988;11.034;2024-02-23T02:24:43;8.97;;;4.47;;
83263;SDS011;73156;50.988;11.034;2024-02-23T02:27:11;11.77;;;5.38;;
83263;SDS011;73156;50.988;11.034;2024-02-23T02:29:36;12.23;;;4.32;;
83263;SDS011;73156;50.988;11.034;2024-02-23T02:32:01;14.03;;;5.33;;
83263;SDS011;73156;50.988;11.034;2024-02-23T02:34:27;10.85;;;4.30;;
83263;SDS011;73156;50.988;11.034;2024-02-23T02:36:53;13.90;;;4.88;;
83263;SDS011;73156;50.988;11.034;2024-02-23T02:39:19;9.90;;;4.63;;
83263;SDS011;73156;50.988;11.034;2024-02-23T02:41:44;10.30;;;4.63;;
83263;SDS011;73156;50.988;11.034;2024-02-23T02:44:09;11.10;;;4.68;;
83263;SDS011;73156;50.988;11.034;2024-02-23T02:46:35;11.68;;;4.45;;
83263;SDS011;73156;50.988;11.034;2024-02-23T02:49:00;11.23;;;4.40;;
83263;SDS011;73156;50.988;11.034;2024-02-23T02:51:26;12.52;;;5.20;;
83263;SDS011;73156;50.988;11.034;2024-02-23T02:53:51;10.83;;;4.87;;
83263;SDS011;73156;50.988;11.034;2024-02-23T02:56:16;7.47;;;3.58;;
83263;SDS011;73156;50.988;11.034;2024-02-23T02:58:41;10.77;;;4.47;;
83263;SDS011;73156;50.988;11.034;2024-02-23T03:01:07;10.23;;;4.85;;
83263;SDS011;73156;50.988;11.034;2024-02-23T03:03:33;10.45;;;4.28;;
83263;SDS011;73156;50.988;11.034;2024-02-23T03:05:58;10.70;;;4.33;;
83263;SDS011;73156;50.988;11.034;2024-02-23T03:08:23;9.90;;;5.13;;
83263;SDS011;73156;50.988;11.034;2024-02-23T03:10:49;10.48;;;4.60;;
83263;SDS011;73156;50.988;11.034;2024-02-23T03:13:14;9.67;;;4.03;;
83263;SDS011;73156;50.988;11.034;2024-02-23T03:15:39;10.67;;;4.50;;
83263;SDS011;73156;50.988;11.034;2024-02-23T03:18:05;8.17;;;3.83;;
83263;SDS011;73156;50.988;11.034;2024-02-23T03:20:30;9.57;;;4.00;;
83263;SDS011;73156;50.988;11.034;2024-02-23T03:22:55;8.20;;;3.65;;
83263;SDS011;73156;50.988;11.034;2024-02-23T03:25:21;8.27;;;3.85;;
83263;SDS011;73156;50.988;11.034;2024-02-23T03:27:46;8.40;;;3.97;;
83263;SDS011;73156;50.988;11.034;2024-02-23T03:30:11;7.97;;;3.57;;
83263;SDS011;73156;50.988;11.034;2024-02-23T03:32:36;11.32;;;3.95;;
83263;SDS011;73156;50.988;11.034;2024-02-23T03:35:03;8.70;;;3.70;;
83263;SDS011;73156;50.988;11.034;2024-02-23T03:37:29;11.63;;;3.72;;
83263;SDS011;73156;50.988;11.034;2024-02-23T03:39:54;9.00;;;3.50;;
83263;SDS011;73156;50.988;11.034;2024-02-23T03:42:19;7.13;;;3.70;;
83263;SDS011;73156;50.988;11.034;2024-02-23T03:44:45;9.10;;;3.63;;
83263;SDS011;73156;50.988;11.034;2024-02-23T03:47:10;8.97;;;3.30;;
83263;SDS011;73156;50.988;11.034;2024-02-23T03:49:35;9.05;;;3.40;;
83263;SDS011;73156;50.988;11.034;2024-02-23T03:52:00;9.33;;;3.33;;
83263;SDS011;73156;50.988;11.034;2024-02-23T03:54:26;6.75;;;2.85;;
83263;SDS011;73156;50.988;11.034;2024-02-23T03:56:51;5.27;;;2.57;;
83263;SDS011;73156;50.988;11.034;2024-02-23T03:59:17;6.93;;;3.07;;
83263;SDS011;73156;50.988;11.034;2024-02-23T04:01:42;7.77;;;2.83;;
83263;SDS011;73156;50.988;11.034;2024-02-23T04:04:07;6.53;;;2.60;;
83263;SDS011;73156;50.988;11.034;2024-02-23T04:06:35;7.70;;;3.40;;
83263;SDS011;73156;50.988;11.034;2024-02-23T04:09:01;6.38;;;2.70;;
83263;SDS011;73156;50.988;11.034;2024-02-23T04:11:26;6.43;;;2.42;;
83263;SDS011;73156;50.988;11.034;2024-02-23T04:13:51;7.03;;;2.77;;
83263;SDS011;73156;50.988;11.034;2024-02-23T04:16:17;5.93;;;2.22;;
83263;SDS011;73156;50.988;11.034;2024-02-23T04:18:42;4.80;;;2.43;;
83263;SDS011;73156;50.988;11.034;2024-02-23T04:21:08;5.28;;;2.15;;
83263;SDS011;73156;50.988;11.034;2024-02-23T04:23:33;4.53;;;1.90;;
83263;SDS011;73156;50.988;11.034;2024-02-23T04:25:58;6.03;;;2.43;;
83263;SDS011;73156;50.988;11.034;2024-02-23T04:28:24;5.80;;;2.08;;
83263;SDS011;73156;50.988;11.034;2024-02-23T04:30:51;4.10;;;1.67;;
83263;SDS011;73156;50.988;11.034;2024-02-23T04:33:17;5.63;;;1.85;;
83263;SDS011;73156;50.988;11.034;2024-02-23T04:35:42;5.47;;;2.30;;
83263;SDS011;73156;50.988;11.034;2024-02-23T04:38:07;4.10;;;1.60;;
83263;SDS011;73156;50.988;11.034;2024-02-23T04:40:32;4.43;;;1.83;;
83263;SDS011;73156;50.988;11.034;2024-02-23T04:42:57;4.53;;;2.07;;
83263;SDS011;73156;50.988;11.034;2024-02-23T04:45:23;4.57;;;2.07;;
83263;SDS011;73156;50.988;11.034;2024-02-23T04:47:48;6.82;;;2.17;;
83263;SDS011;73156;50.988;11.034;2024-02-23T04:50:13;4.85;;;1.80;;
83263;SDS011;73156;50.988;11.034;2024-02-23T04:52:39;3.85;;;1.80;;
83263;SDS011;73156;50.988;11.034;2024-02-23T04:55:04;4.78;;;1.98;;
83263;SDS011;73156;50.988;11.034;2024-02-23T04:57:31;6.10;;;2.20;;
83263;SDS011;73156;50.988;11.034;2024-02-23T04:59:56;3.97;;;1.70;;
83263;SDS011;73156;50.988;11.034;2024-02-23T05:02:21;6.28;;;1.95;;
83263;SDS011;73156;50.988;11.034;2024-02-23T05:04:47;5.17;;;1.70;;
83263;SDS011;73156;50.988;11.034;2024-02-23T05:07:12;3.35;;;1.67;;
83263;SDS011;73156;50.988;11.034;2024-02-23T05:09:37;6.57;;;2.20;;
83263;SDS011;73156;50.988;11.034;2024-02-23T05:12:02;4.93;;;2.07;;
83263;SDS011;73156;50.988;11.034;2024-02-23T05:14:28;5.72;;;2.08;;
83263;SDS011;73156;50.988;11.034;2024-02-23T05:16:53;4.95;;;1.65;;
83263;SDS011;73156;50.988;11.034;2024-02-23T05:19:19;2.90;;;1.37;;
83263;SDS011;73156;50.988;11.034;2024-02-23T05:21:44;3.90;;;1.83;;
83263;SDS011;73156;50.988;11.034;2024-02-23T05:24:10;4.10;;;1.67;;
83263;SDS011;73156;50.988;11.034;2024-02-23T05:26:36;4.05;;;1.50;;
83263;SDS011;73156;50.988;11.034;2024-02-23T05:29:01;3.20;;;1.27;;
83263;SDS011;73156;50.988;11.034;2024-02-23T05:31:47;4.70;;;1.95;;
83263;SDS011;73156;50.988;11.034;2024-02-23T05:34:18;3.88;;;1.80;;
83263;SDS011;73156;50.988;11.034;2024-02-23T05:36:44;4.63;;;2.00;;
83263;SDS011;73156;50.988;11.034;2024-02-23T05:39:13;4.38;;;1.88;;
83263;SDS011;73156;50.988;11.034;2024-02-23T05:41:40;5.55;;;2.20;;
83263;SDS011;73156;50.988;11.034;2024-02-23T05:44:06;4.78;;;1.92;;
83263;SDS011;73156;50.988;11.034;2024-02-23T05:46:32;3.83;;;1.33;;
83263;SDS011;73156;50.988;11.034;2024-02-23T05:48:58;5.78;;;2.20;;
83263;SDS011;73156;50.988;11.034;2024-02-23T05:51:23;6.65;;;1.83;;
83263;SDS011;73156;50.988;11.034;2024-02-23T05:53:49;4.20;;;1.50;;
83263;SDS011;73156;50.988;11.034;2024-02-23T05:56:14;4.22;;;1.90;;
83263;SDS011;73156;50.988;11.034;2024-02-23T05:58:40;6.53;;;2.10;;
83263;SDS011;73156;50.988;11.034;2024-02-23T06:01:05;4.97;;;1.90;;
83263;SDS011;73156;50.988;11.034;2024-02-23T06:03:32;3.92;;;1.80;;
83263;SDS011;73156;50.988;11.034;2024-02-23T06:05:57;4.63;;;2.10;;
83263;SDS011;73156;50.988;11.034;2024-02-23T06:08:24;4.60;;;1.73;;
83263;SDS011;73156;50.988;11.034;2024-02-23T06:10:49;6.47;;;1.60;;
83263;SDS011;73156;50.988;11.034;2024-02-23T06:13:14;4.43;;;1.93;;
83263;SDS011;73156;50.988;11.034;2024-02-23T06:15:39;4.93;;;1.93;;
83263;SDS011;73156;50.988;11.034;2024-02-23T06:18:05;5.28;;;1.80;;
83263;SDS011;73156;50.988;11.034;2024-02-23T06:20:30;6.28;;;1.80;;
83263;SDS011;73156;50.988;11.034;2024-02-23T06:22:57;6.53;;;2.13;;
83263;SDS011;73156;50.988;11.034;2024-02-23T06:25:22;5.93;;;2.25;;
83263;SDS011;73156;50.988;11.034;2024-02-23T06:27:47;5.60;;;2.20;;
83263;SDS011;73156;50.988;11.034;2024-02-23T06:30:12;4.97;;;1.83;;
83263;SDS011;73156;50.988;11.034;2024-02-23T06:32:38;6.05;;;2.28;;
83263;SDS011;73156;50.988;11.034;2024-02-23T06:35:03;5.73;;;2.60;;
83263;SDS011;73156;50.988;11.034;2024-02-23T06:37:31;6.85;;;2.53;;
83263;SDS011;73156;50.988;11.034;2024-02-23T06:39:56;6.22;;;2.60;;
83263;SDS011;73156;50.988;11.034;2024-02-23T06:42:22;7.30;;;2.92;;
83263;SDS011;73156;50.988;11.034;2024-02-23T06:44:47;8.27;;;3.30;;
83263;SDS011;73156;50.988;11.034;2024-02-23T06:47:13;6.85;;;2.40;;
83263;SDS011;73156;50.988;11.034;2024-02-23T06:49:42;6.70;;;2.78;;
83263;SDS011;73156;50.988;11.034;2024-02-23T06:52:08;8.65;;;3.65;;
83263;SDS011;73156;50.988;11.034;2024-02-23T06:54:34;7.22;;;3.00;;
83263;SDS011;73156;50.988;11.034;2024-02-23T06:56:59;7.00;;;3.13;;
83263;SDS011;73156;50.988;11.034;2024-02-23T06:59:24;7.95;;;2.80;;
83263;SDS011;73156;50.988;11.034;2024-02-23T07:01:50;6.68;;;2.85;;
83263;SDS011;73156;50.988;11.034;2024-02-23T07:04:16;8.32;;;2.83;;
83263;SDS011;73156;50.988;11.034;2024-02-23T07:06:41;6.55;;;2.60;;
83263;SDS011;73156;50.988;11.034;2024-02-23T07:09:07;8.10;;;3.08;;
83263;SDS011;73156;50.988;11.034;2024-02-23T07:11:33;7.10;;;3.13;;
83263;SDS011;73156;50.988;11.034;2024-02-23T07:13:58;6.40;;;2.95;;
83263;SDS011;73156;50.988;11.034;2024-02-23T07:16:23;6.93;;;3.00;;
83263;SDS011;73156;50.988;11.034;2024-02-23T07:18:49;9.27;;;3.50;;
83263;SDS011;73156;50.988;11.034;2024-02-23T07:21:17;9.07;;;3.23;;
83263;SDS011;73156;50.988;11.034;2024-02-23T07:23:42;9.95;;;3.50;;
83263;SDS011;73156;50.988;11.034;2024-02-23T07:26:08;9.43;;;3.23;;
83263;SDS011;73156;50.988;11.034;2024-02-23T07:28:33;6.17;;;2.90;;
83263;SDS011;73156;50.988;11.034;2024-02-23T07:30:58;9.05;;;3.47;;
83263;SDS011;73156;50.988;11.034;2024-02-23T07:33:23;8.00;;;3.10;;
83263;SDS011;73156;50.988;11.034;2024-02-23T07:35:49;8.43;;;3.23;;
83263;SDS011;73156;50.988;11.034;2024-02-23T07:38:14;8.70;;;3.37;;
83263;SDS011;73156;50.988;11.034;2024-02-23T07:40:39;7.07;;;3.57;;
83263;SDS011;73156;50.988;11.034;2024-02-23T07:43:05;8.32;;;3.47;;
83263;SDS011;73156;50.988;11.034;2024-02-23T07:45:30;5.93;;;2.95;;
83263;SDS011;73156;50.988;11.034;2024-02-23T07:47:56;7.00;;;2.85;;
83263;SDS011;73156;50.988;11.034;2024-02-23T07:50:21;9.07;;;2.83;;
83263;SDS011;73156;50.988;11.034;2024-02-23T07:52:46;8.63;;;3.10;;
83263;SDS011;73156;50.988;11.034;2024-02-23T07:55:11;6.47;;;3.40;;
83263;SDS011;73156;50.988;11.034;2024-02-23T07:57:37;7.10;;;2.63;;
83263;SDS011;73156;50.988;11.034;2024-02-23T08:00:04;8.45;;;2.92;;
83263;SDS011;73156;50.988;11.034;2024-02-23T08:02:30;9.50;;;3.13;;
83263;SDS011;73156;50.988;11.034;2024-02-23T08:04:55;7.87;;;3.00;;
83263;SDS011;73156;50.988;11.034;2024-02-23T08:07:21;8.13;;;2.87;;
83263;SDS011;73156;50.988;11.034;2024-02-23T08:09:47;6.68;;;2.63;;
83263;SDS011;73156;50.988;11.034;2024-02-23T08:12:13;8.93;;;3.40;;
83263;SDS011;73156;50.988;11.034;2024-02-23T08:14:38;6.70;;;2.72;;
83263;SDS011;73156;50.988;11.034;2024-02-23T08:17:04;9.47;;;3.13;;
83263;SDS011;73156;50.988;11.034;2024-02-23T08:19:29;8.05;;;3.40;;
83263;SDS011;73156;50.988;11.034;2024-02-23T08:21:55;8.80;;;3.17;;
83263;SDS011;73156;50.988;11.034;2024-02-23T08:24:20;6.97;;;2.83;;
83263;SDS011;73156;50.988;11.034;2024-02-23T08:26:45;6.32;;;2.80;;
83263;SDS011;73156;50.988;11.034;2024-02-23T08:29:11;8.48;;;3.63;;
83263;SDS011;73156;50.988;11.034;2024-02-23T08:31:36;7.50;;;2.95;;
83263;SDS011;73156;50.988;11.034;2024-02-23T08:34:01;7.47;;;2.90;;
83263;SDS011;73156;50.988;11.034;2024-02-23T08:36:27;8.10;;;3.20;;
83263;SDS011;73156;50.988;11.034;2024-02-23T08:38:52;12.50;;;3.60;;
83263;SDS011;73156;50.988;11.034;2024-02-23T08:41:17;8.95;;;2.80;;
83263;SDS011;73156;50.988;11.034;2024-02-23T08:43:42;7.68;;;2.63;;
83263;SDS011;73156;50.988;11.034;2024-02-23T08:46:08;7.90;;;3.13;;
83263;SDS011;73156;50.988;11.034;2024-02-23T08:48:33;6.93;;;2.93;;
83263;SDS011;73156;50.988;11.034;2024-02-23T08:50:58;8.40;;;3.63;;
83263;SDS011;73156;50.988;11.034;2024-02-23T08:53:23;8.10;;;3.20;;
83263;SDS011;73156;50.988;11.034;2024-02-23T08:55:49;7.43;;;3.33;;
83263;SDS011;73156;50.988;11.034;2024-02-23T08:58:14;10.13;;;3.60;;
83263;SDS011;73156;50.988;11.034;2024-02-23T09:00:39;8.30;;;3.50;;
83263;SDS011;73156;50.988;11.034;2024-02-23T09:03:04;10.67;;;3.10;;
83263;SDS011;73156;50.988;11.034;2024-02-23T09:05:30;7.47;;;3.10;;
83263;SDS011;73156;50.988;11.034;2024-02-23T09:07:55;10.37;;;4.10;;
83263;SDS011;73156;50.988;11.034;2024-02-23T09:10:20;10.60;;;4.50;;
83263;SDS011;73156;50.988;11.034;2024-02-23T09:12:45;8.95;;;3.72;;
83263;SDS011;73156;50.988;11.034;2024-02-23T09:15:11;12.07;;;3.80;;
83263;SDS011;73156;50.988;11.034;2024-02-23T09:17:36;7.95;;;3.53;;
83263;SDS011;73156;50.988;11.034;2024-02-23T09:20:01;14.13;;;4.50;;
83263;SDS011;73156;50.988;11.034;2024-02-23T09:22:27;11.30;;;3.95;;
83263;SDS011;73156;50.988;11.034;2024-02-23T09:24:52;10.52;;;4.35;;
83263;SDS011;73156;50.988;11.034;2024-02-23T09:27:20;17.23;;;3.88;;
83263;SDS011;73156;50.988;11.034;2024-02-23T09:29:45;13.80;;;4.50;;
83263;SDS011;73156;50.988;11.034;2024-02-23T09:32:11;13.50;;;4.40;;
83263;SDS011;73156;50.988;11.034;2024-02-23T09:34:36;14.70;;;5.22;;
83263;SDS011;73156;50.988;11.034;2024-02-23T09:37:01;16.33;;;5.45;;
83263;SDS011;73156;50.988;11.034;2024-02-23T09:39:27;14.30;;;5.38;;
83263;SDS011;73156;50.988;11.034;2024-02-23T09:41:55;18.67;;;5.25;;
83263;SDS011;73156;50.988;11.034;2024-02-23T09:44:21;14.63;;;5.13;;
83263;SDS011;73156;50.988;11.034;2024-02-23T09:46:47;10.50;;;5.15;;
83263;SDS011;73156;50.988;11.034;2024-02-23T09:49:13;10.68;;;4.50;;
83263;SDS011;73156;50.988;11.034;2024-02-23T09:51:41;13.88;;;5.53;;
83263;SDS011;73156;50.988;11.034;2024-02-23T09:54:06;15.23;;;5.50;;
83263;SDS011;73156;50.988;11.034;2024-02-23T09:56:32;11.70;;;4.75;;
83263;SDS011;73156;50.988;11.034;2024-02-23T09:58:59;10.82;;;4.63;;
83263;SDS011;73156;50.988;11.034;2024-02-23T10:01:30;11.60;;;4.68;;
83263;SDS011;73156;50.988;11.034;2024-02-23T10:03:57;13.63;;;4.95;;
83263;SDS011;73156;50.988;11.034;2024-02-23T10:06:24;13.50;;;4.68;;
83263;SDS011;73156;50.988;11.034;2024-02-23T10:08:49;11.63;;;4.55;;
83263;SDS011;73156;50.988;11.034;2024-02-23T10:11:17;11.37;;;4.40;;
83263;SDS011;73156;50.988;11.034;2024-02-23T10:13:43;12.80;;;4.75;;
83263;SDS011;73156;50.988;11.034;2024-02-23T10:16:08;10.10;;;4.40;;
83263;SDS011;73156;50.988;11.034;2024-02-23T10:18:33;12.33;;;4.70;;
83263;SDS011;73156;50.988;11.034;2024-02-23T10:20:59;10.38;;;4.60;;
83263;SDS011;73156;50.988;11.034;2024-02-23T10:23:24;13.60;;;4.97;;
83263;SDS011;73156;50.988;11.034;2024-02-23T10:25:50;12.98;;;4.10;;
83263;SDS011;73156;50.988;11.034;2024-02-23T10:28:15;11.60;;;4.23;;
83263;SDS011;73156;50.988;11.034;2024-02-23T10:30:41;8.93;;;3.80;;
83263;SDS011;73156;50.988;11.034;2024-02-23T10:33:06;13.93;;;4.28;;
83263;SDS011;73156;50.988;11.034;2024-02-23T10:35:33;12.00;;;4.25;;
83263;SDS011;73156;50.988;11.034;2024-02-23T10:38:05;11.10;;;4.43;;
83263;SDS011;73156;50.988;11.034;2024-02-23T10:40:34;10.88;;;4.32;;
83263;SDS011;73156;50.988;11.034;2024-02-23T10:43:05;9.65;;;4.13;;
83263;SDS011;73156;50.988;11.034;2024-02-23T10:45:36;8.55;;;3.42;;
83263;SDS011;73156;50.988;11.034;2024-02-23T10:48:03;10.88;;;4.57;;
83263;SDS011;73156;50.988;11.034;2024-02-23T10:50:29;9.00;;;4.13;;
83263;SDS011;73156;50.988;11.034;2024-02-23T10:52:54;11.88;;;4.20;;
83263;SDS011;73156;50.988;11.034;2024-02-23T10:55:20;8.68;;;3.75;;
83263;SDS011;73156;50.988;11.034;2024-02-23T10:57:48;8.98;;;3.78;;
83263;SDS011;73156;50.988;11.034;2024-02-23T11:00:14;8.52;;;3.88;;
83263;SDS011;73156;50.988;11.034;2024-02-23T11:02:46;10.75;;;4.15;;
83263;SDS011;73156;50.988;11.034;2024-02-23T11:05:15;8.32;;;3.67;;
83263;SDS011;73156;50.988;11.034;2024-02-23T11:07:41;10.32;;;4.30;;
83263;SDS011;73156;50.988;11.034;2024-02-23T11:10:07;12.90;;;4.30;;
83263;SDS011;73156;50.988;11.034;2024-02-23T11:12:34;9.40;;;3.53;;
83263;SDS011;73156;50.988;11.034;2024-02-23T11:15:00;10.60;;;3.95;;
83263;SDS011;73156;50.988;11.034;2024-02-23T11:17:26;8.60;;;3.63;;
83263;SDS011;73156;50.988;11.034;2024-02-23T11:19:54;10.75;;;3.83;;
83263;SDS011;73156;50.988;11.034;2024-02-23T11:22:41;9.15;;;3.95;;
83263;SDS011;73156;50.988;11.034;2024-02-23T11:25:06;9.38;;;3.58;;
83263;SDS011;73156;50.988;11.034;2024-02-23T11:27:36;13.10;;;4.05;;
83263;SDS011;73156;50.988;11.034;2024-02-23T11:30:03;7.75;;;2.88;;
83263;SDS011;73156;50.988;11.034;2024-02-23T11:32:40;7.63;;;3.67;;
83263;SDS011;73156;50.988;11.034;2024-02-23T11:35:08;9.43;;;3.35;;
83263;SDS011;73156;50.988;11.034;2024-02-23T11:40:24;8.48;;;3.75;;
83263;SDS011;73156;50.988;11.034;2024-02-23T11:42:50;8.25;;;2.75;;
83263;SDS011;73156;50.988;11.034;2024-02-23T11:45:16;8.25;;;3.17;;
83263;SDS011;73156;50.988;11.034;2024-02-23T11:47:41;11.23;;;3.03;;
83263;SDS011;73156;50.988;11.034;2024-02-23T11:50:10;7.45;;;2.80;;
83263;SDS011;73156;50.988;11.034;2024-02-23T11:52:38;8.23;;;2.58;;
83263;SDS011;73156;50.988;11.034;2024-02-23T11:55:04;6.85;;;2.63;;
83263;SDS011;73156;50.988;11.034;2024-02-23T11:57:35;6.35;;;3.15;;
83263;SDS011;73156;50.988;11.034;2024-02-23T12:00:03;5.63;;;2.30;;
83263;SDS011;73156;50.988;11.034;2024-02-23T12:02:31;9.82;;;2.70;;
83263;SDS011;73156;50.988;11.034;2024-02-23T12:04:56;8.52;;;3.05;;
83263;SDS011;73156;50.988;11.034;2024-02-23T12:07:22;7.23;;;2.63;;
83263;SDS011;73156;50.988;11.034;2024-02-23T12:09:47;7.80;;;2.90;;
83263;SDS011;73156;50.988;11.034;2024-02-23T12:12:13;9.68;;;2.33;;
83263;SDS011;73156;50.988;11.034;2024-02-23T12:14:39;6.15;;;2.15;;
83263;SDS011;73156;50.988;11.034;2024-02-23T12:17:04;5.60;;;2.00;;
83263;SDS011;73156;50.988;11.034;2024-02-23T12:19:31;5.65;;;2.25;;
83263;SDS011;73156;50.988;11.034;2024-02-23T12:22:00;3.63;;;1.73;;
83263;SDS011;73156;50.988;11.034;2024-02-23T12:24:26;5.85;;;2.08;;
83263;SDS011;73156;50.988;11.034;2024-02-23T12:26:54;6.00;;;2.30;;
83263;SDS011;73156;50.988;11.034;2024-02-23T12:29:20;6.18;;;2.30;;
83263;SDS011;73156;50.988;11.034;2024-02-23T12:31:45;5.47;;;1.67;;
83263;SDS011;73156;50.988;11.034;2024-02-23T12:34:11;5.90;;;2.00;;
83263;SDS011;73156;50.988;11.034;2024-02-23T12:36:37;5.38;;;1.95;;
83263;SDS011;73156;50.988;11.034;2024-02-23T12:39:04;5.05;;;1.83;;
83263;SDS011;73156;50.988;11.034;2024-02-23T12:41:29;5.80;;;1.83;;
83263;SDS011;73156;50.988;11.034;2024-02-23T12:43:54;5.05;;;1.80;;
83263;SDS011;73156;50.988;11.034;2024-02-23T12:46:19;4.43;;;1.58;;
83263;SDS011;73156;50.988;11.034;2024-02-23T12:48:45;3.80;;;1.80;;
83263;SDS011;73156;50.988;11.034;2024-02-23T12:51:10;9.35;;;2.13;;
83263;SDS011;73156;50.988;11.034;2024-02-23T12:53:36;8.52;;;1.95;;
83263;SDS011;73156;50.988;11.034;2024-02-23T12:56:09;6.45;;;1.88;;
83263;SDS011;73156;50.988;11.034;2024-02-23T12:58:38;6.47;;;2.20;;
83263;SDS011;73156;50.988;11.034;2024-02-23T13:01:08;7.18;;;1.90;;
83263;SDS011;73156;50.988;11.034;2024-02-23T13:03:34;5.57;;;2.10;;
83263;SDS011;73156;50.988;11.034;2024-02-23T13:06:01;4.57;;;1.80;;
83263;SDS011;73156;50.988;11.034;2024-02-23T13:08:27;7.22;;;2.05;;
83263;SDS011;73156;50.988;11.034;2024-02-23T13:10:53;5.17;;;1.80;;
83263;SDS011;73156;50.988;11.034;2024-02-23T13:13:19;8.68;;;2.33;;
83263;SDS011;73156;50.988;11.034;2024-02-23T13:15:45;4.88;;;2.05;;
83263;SDS011;73156;50.988;11.034;2024-02-23T13:18:11;9.18;;;2.40;;
83263;SDS011;73156;50.988;11.034;2024-02-23T13:20:37;7.88;;;2.10;;
83263;SDS011;73156;50.988;11.034;2024-02-23T13:23:03;6.53;;;2.60;;
83263;SDS011;73156;50.988;11.034;2024-02-23T13:25:28;6.07;;;2.50;;
83263;SDS011;73156;50.988;11.034;2024-02-23T13:27:53;7.25;;;2.30;;
83263;SDS011;73156;50.988;11.034;2024-02-23T13:30:19;8.85;;;3.10;;
83263;SDS011;73156;50.988;11.034;2024-02-23T13:32:44;9.48;;;2.78;;
83263;SDS011;73156;50.988;11.034;2024-02-23T13:35:09;7.67;;;2.67;;
83263;SDS011;73156;50.988;11.034;2024-02-23T13:37:35;7.77;;;2.57;;
83263;SDS011;73156;50.988;11.034;2024-02-23T13:40:00;12.40;;;3.03;;
83263;SDS011;73156;50.988;11.034;2024-02-23T13:42:26;7.15;;;3.20;;
83263;SDS011;73156;50.988;11.034;2024-02-23T13:44:51;7.97;;;2.70;;
83263;SDS011;73156;50.988;11.034;2024-02-23T13:47:16;7.47;;;3.00;;
83263;SDS011;73156;50.988;11.034;2024-02-23T13:49:42;7.63;;;2.97;;
83263;SDS011;73156;50.988;11.034;2024-02-23T13:52:07;10.00;;;3.00;;
83263;SDS011;73156;50.988;11.034;2024-02-23T13:54:32;8.97;;;3.50;;
83263;SDS011;73156;50.988;11.034;2024-02-23T13:56:58;10.63;;;3.03;;
83263;SDS011;73156;50.988;11.034;2024-02-23T13:59:23;9.37;;;3.07;;
83263;SDS011;73156;50.988;11.034;2024-02-23T14:01:48;11.20;;;3.57;;
83263;SDS011;73156;50.988;11.034;2024-02-23T14:04:13;9.15;;;2.78;;
83263;SDS011;73156;50.988;11.034;2024-02-23T14:06:39;10.13;;;3.33;;
83263;SDS011;73156;50.988;11.034;2024-02-23T14:09:04;14.30;;;4.03;;
83263;SDS011;73156;50.988;11.034;2024-02-23T14:11:29;8.20;;;3.30;;
83263;SDS011;73156;50.988;11.034;2024-02-23T14:13:55;7.28;;;3.13;;
83263;SDS011;73156;50.988;11.034;2024-02-23T14:16:21;7.70;;;3.25;;
83263;SDS011;73156;50.988;11.034;2024-02-23T14:18:48;7.90;;;3.30;;
83263;SDS011;73156;50.988;11.034;2024-02-23T14:21:13;11.25;;;3.92;;
83263;SDS011;73156;50.988;11.034;2024-02-23T14:23:39;10.10;;;3.45;;
83263;SDS011;73156;50.988;11.034;2024-02-23T14:26:05;9.60;;;3.73;;